Time,TemperatureF,DewpointF,PressureIn,WindDirection,WindDirectionDegrees,WindSpeedMPH,WindSpeedGustMPH,Humidity,HourlyPrecipIn,Conditions,Clouds,dailyrainin,SolarRadiationWatts/m^2,SoftwareType,DateUTC
2013-03-14 01:38:00,35.2,29.4,30.16,South,186,2.0,0.0,79,0.00,,,0.00,0,WeatherTracker,2013-03-14 06:38:00,
2013-03-14 01:43:00,35.4,29.5,30.16,South,186,1.0,0.0,79,0.00,,,0.00,0,WeatherTracker,2013-03-14 06:43:00,
2013-03-14 01:48:00,35.5,29.6,30.16,South,187,2.0,0.0,79,0.00,,,0.00,0,WeatherTracker,2013-03-14 06:48:00,
2013-03-14 01:53:00,35.5,29.6,30.16,South,187,0.0,0.0,79,0.00,,,0.00,0,WeatherTracker,2013-03-14 06:53:00,
2013-03-14 01:58:00,35.3,29.4,30.15,South,187,0.0,0.0,79,0.00,,,0.00,0,WeatherTracker,2013-03-14 06:58:00,
2013-03-14 02:04:00,34.9,29.4,30.15,South,187,0.0,0.0,80,0.00,,,0.00,0,WeatherTracker,2013-03-14 07:04:00,
2013-03-14 02:09:00,34.6,29.1,30.15,South,187,0.0,0.0,80,0.00,,,0.00,0,WeatherTracker,2013-03-14 07:09:00,
2013-03-14 02:14:00,34.4,28.9,30.14,South,187,0.0,0.0,80,0.00,,,0.00,0,WeatherTracker,2013-03-14 07:14:00,
2013-03-14 02:19:00,34.3,28.8,30.14,South,187,0.0,0.0,80,0.00,,,0.00,0,WeatherTracker,2013-03-14 07:19:00,
2013-03-14 02:24:00,34.1,28.9,30.14,South,187,0.0,0.0,81,0.00,,,0.00,0,WeatherTracker,2013-03-14 07:24:00,
2013-03-14 02:29:00,34.1,28.9,30.14,South,187,0.0,0.0,81,0.00,,,0.00,0,WeatherTracker,2013-03-14 07:29:00,
2013-03-14 02:34:00,34.2,29.3,30.14,South,187,0.0,0.0,82,0.00,,,0.00,0,WeatherTracker,2013-03-14 07:34:00,
2013-03-14 02:39:00,34.2,29.3,30.13,South,187,0.0,0.0,82,0.00,,,0.00,0,WeatherTracker,2013-03-14 07:39:00,
2013-03-14 02:44:00,34.1,29.2,30.13,South,187,0.0,0.0,82,0.00,,,0.00,0,WeatherTracker,2013-03-14 07:44:00,
2013-03-14 02:49:00,34.3,29.4,30.13,South,187,0.0,0.0,82,0.00,,,0.00,0,WeatherTracker,2013-03-14 07:49:00,
2013-03-14 02:54:00,34.4,29.5,30.13,South,187,0.0,0.0,82,0.00,,,0.00,0,WeatherTracker,2013-03-14 07:54:00,
2013-03-14 02:59:00,34.4,29.5,30.13,South,187,1.0,0.0,82,0.00,,,0.00,0,WeatherTracker,2013-03-14 07:59:00,
2013-03-14 03:04:00,34.4,29.5,30.13,South,187,0.0,0.0,82,0.00,,,0.00,0,WeatherTracker,2013-03-14 08:04:00,
2013-03-14 03:09:00,34.4,29.5,30.13,South,187,0.0,0.0,82,0.00,,,0.00,0,WeatherTracker,2013-03-14 08:09:00,
2013-03-14 03:14:00,34.4,29.5,30.13,South,187,0.0,0.0,82,0.00,,,0.00,0,WeatherTracker,2013-03-14 08:14:00,
2013-03-14 03:19:00,34.3,29.4,30.13,South,187,0.0,0.0,82,0.00,,,0.00,0,WeatherTracker,2013-03-14 08:19:00,
2013-03-14 03:24:00,33.9,29.0,30.13,South,187,0.0,0.0,82,0.00,,,0.00,0,WeatherTracker,2013-03-14 08:24:00,
2013-03-14 03:29:00,33.7,29.1,30.13,South,187,0.0,0.0,83,0.00,,,0.00,0,WeatherTracker,2013-03-14 08:29:00,
2013-03-14 03:35:00,33.5,28.9,30.13,South,187,0.0,0.0,83,0.00,,,0.00,0,WeatherTracker,2013-03-14 08:35:00,
2013-03-14 03:40:00,33.3,28.7,30.12,South,187,0.0,0.0,83,0.00,,,0.00,0,WeatherTracker,2013-03-14 08:40:00,
2013-03-14 03:45:00,32.9,28.3,30.12,South,187,0.0,0.0,83,0.00,,,0.00,0,WeatherTracker,2013-03-14 08:45:00,
2013-03-14 03:50:00,32.6,28.3,30.11,South,187,0.0,0.0,84,0.00,,,0.00,0,WeatherTracker,2013-03-14 08:50:00,
2013-03-14 03:55:00,32.6,28.3,30.11,South,187,0.0,0.0,84,0.00,,,0.00,0,WeatherTracker,2013-03-14 08:55:00,
2013-03-14 04:00:00,32.5,28.2,30.11,South,187,0.0,0.0,84,0.00,,,0.00,0,WeatherTracker,2013-03-14 09:00:00,
2013-03-14 04:05:00,32.5,28.5,30.10,South,187,0.0,0.0,85,0.00,,,0.00,0,WeatherTracker,2013-03-14 09:05:00,
2013-03-14 04:10:00,32.6,28.6,30.10,South,187,0.0,0.0,85,0.00,,,0.00,0,WeatherTracker,2013-03-14 09:10:00,
2013-03-14 04:15:00,32.7,28.7,30.10,South,187,0.0,0.0,85,0.00,,,0.00,0,WeatherTracker,2013-03-14 09:15:00,
2013-03-14 04:20:00,32.5,28.5,30.10,South,187,0.0,0.0,85,0.00,,,0.00,0,WeatherTracker,2013-03-14 09:20:00,
2013-03-14 04:25:00,32.5,28.5,30.09,South,187,0.0,0.0,85,0.00,,,0.00,0,WeatherTracker,2013-03-14 09:25:00,
2013-03-14 04:30:00,32.6,28.9,30.09,South,187,0.0,0.0,86,0.00,,,0.00,0,WeatherTracker,2013-03-14 09:30:00,
2013-03-14 04:35:00,32.5,28.8,30.09,South,187,0.0,0.0,86,0.00,,,0.00,0,WeatherTracker,2013-03-14 09:35:00,
2013-03-14 04:40:00,32.7,29.0,30.09,South,187,0.0,0.0,86,0.00,,,0.00,0,WeatherTracker,2013-03-14 09:40:00,
2013-03-14 04:45:00,32.7,29.0,30.09,South,187,0.0,0.0,86,0.00,,,0.00,0,WeatherTracker,2013-03-14 09:45:00,
2013-03-14 04:50:00,32.6,28.9,30.08,South,187,0.0,0.0,86,0.00,,,0.00,0,WeatherTracker,2013-03-14 09:50:00,
2013-03-14 04:55:00,32.6,28.9,30.08,South,187,0.0,0.0,86,0.00,,,0.00,0,WeatherTracker,2013-03-14 09:55:00,
2013-03-14 05:00:00,32.4,28.7,30.08,South,187,0.0,0.0,86,0.00,,,0.00,0,WeatherTracker,2013-03-14 10:00:00,
2013-03-14 05:05:00,32.3,28.6,30.08,South,187,0.0,0.0,86,0.00,,,0.00,0,WeatherTracker,2013-03-14 10:05:00,
2013-03-14 05:10:00,32.4,28.7,30.08,South,187,0.0,0.0,86,0.00,,,0.00,0,WeatherTracker,2013-03-14 10:10:00,
2013-03-14 05:15:00,32.3,28.9,30.08,South,187,0.0,0.0,87,0.00,,,0.00,0,WeatherTracker,2013-03-14 10:15:00,
2013-03-14 05:20:00,32.1,28.7,30.07,South,187,0.0,0.0,87,0.00,,,0.00,0,WeatherTracker,2013-03-14 10:20:00,
2013-03-14 05:25:00,32.2,28.8,30.08,South,187,0.0,0.0,87,0.00,,,0.00,0,WeatherTracker,2013-03-14 10:25:00,
2013-03-14 05:30:00,32.3,28.9,30.08,South,187,0.0,0.0,87,0.00,,,0.00,0,WeatherTracker,2013-03-14 10:30:00,
2013-03-14 05:35:00,32.3,28.9,30.08,South,187,2.0,0.0,87,0.00,,,0.00,0,WeatherTracker,2013-03-14 10:35:00,
2013-03-14 05:41:00,32.7,29.5,30.08,South,187,2.0,0.0,88,0.00,,,0.00,0,WeatherTracker,2013-03-14 10:41:00,
2013-03-14 05:46:00,33.2,30.0,30.08,South,187,3.0,0.0,88,0.00,,,0.00,0,WeatherTracker,2013-03-14 10:46:00,
2013-03-14 05:51:00,33.7,30.5,30.08,South,187,0.0,0.0,88,0.00,,,0.00,0,WeatherTracker,2013-03-14 10:51:00,
2013-03-14 05:56:00,33.8,30.6,30.08,South,187,0.0,0.0,88,0.00,,,0.00,0,WeatherTracker,2013-03-14 10:56:00,
2013-03-14 06:01:00,33.8,30.6,30.08,South,187,1.0,0.0,88,0.00,,,0.00,0,WeatherTracker,2013-03-14 11:01:00,
2013-03-14 06:06:00,33.7,30.5,30.07,South,187,0.0,0.0,88,0.00,,,0.00,0,WeatherTracker,2013-03-14 11:06:00,
2013-03-14 06:11:00,33.8,30.6,30.08,South,187,1.0,0.0,88,0.00,,,0.00,0,WeatherTracker,2013-03-14 11:11:00,
2013-03-14 06:16:00,33.9,30.7,30.08,South,187,1.0,0.0,88,0.00,,,0.00,0,WeatherTracker,2013-03-14 11:16:00,
2013-03-14 06:21:00,33.9,30.7,30.07,South,187,0.0,0.0,88,0.00,,,0.00,0,WeatherTracker,2013-03-14 11:21:00,
2013-03-14 06:26:00,33.8,30.6,30.07,South,187,0.0,0.0,88,0.00,,,0.00,0,WeatherTracker,2013-03-14 11:26:00,
2013-03-14 06:31:00,33.6,30.4,30.07,South,187,0.0,0.0,88,0.00,,,0.00,0,WeatherTracker,2013-03-14 11:31:00,
2013-03-14 06:36:00,33.5,30.3,30.07,South,187,1.0,0.0,88,0.00,,,0.00,0,WeatherTracker,2013-03-14 11:36:00,
2013-03-14 06:41:00,33.5,30.3,30.08,South,187,0.0,0.0,88,0.00,,,0.00,0,WeatherTracker,2013-03-14 11:41:00,
2013-03-14 06:47:00,33.5,30.3,30.08,South,187,0.0,0.0,88,0.00,,,0.00,0,WeatherTracker,2013-03-14 11:47:00,
2013-03-14 06:52:00,33.7,30.5,30.08,South,187,2.0,0.0,88,0.00,,,0.00,0,WeatherTracker,2013-03-14 11:52:00,
2013-03-14 06:57:00,33.9,30.7,30.08,South,187,4.0,0.0,88,0.00,,,0.00,0,WeatherTracker,2013-03-14 11:57:00,
2013-03-14 07:02:00,34.1,30.9,30.08,South,187,2.0,0.0,88,0.00,,,0.00,0,WeatherTracker,2013-03-14 12:02:00,
2013-03-14 07:07:00,34.4,31.2,30.08,South,187,3.0,0.0,88,0.00,,,0.00,0,WeatherTracker,2013-03-14 12:07:00,
2013-03-14 07:12:00,34.4,31.2,30.08,South,187,1.0,0.0,88,0.00,,,0.00,0,WeatherTracker,2013-03-14 12:12:00,
2013-03-14 07:17:00,34.4,31.2,30.08,South,187,2.0,0.0,88,0.00,,,0.00,0,WeatherTracker,2013-03-14 12:17:00,
2013-03-14 07:22:00,34.4,31.2,30.08,South,187,1.0,0.0,88,0.00,,,0.00,0,WeatherTracker,2013-03-14 12:22:00,
2013-03-14 07:27:00,34.3,30.8,30.08,South,187,0.0,0.0,87,0.00,,,0.00,0,WeatherTracker,2013-03-14 12:27:00,
2013-03-14 07:32:00,34.1,30.6,30.08,South,188,0.0,0.0,87,0.00,,,0.00,0,WeatherTracker,2013-03-14 12:32:00,
2013-03-14 07:37:00,34.1,30.6,30.09,South,187,0.0,0.0,87,0.00,,,0.00,0,WeatherTracker,2013-03-14 12:37:00,
2013-03-14 07:42:00,34.0,30.5,30.09,South,187,2.0,0.0,87,0.00,,,0.00,0,WeatherTracker,2013-03-14 12:42:00,
2013-03-14 07:47:00,34.3,30.8,30.09,South,187,1.0,0.0,87,0.00,,,0.00,0,WeatherTracker,2013-03-14 12:47:00,
2013-03-14 07:52:00,34.4,30.9,30.09,South,187,2.0,0.0,87,0.00,,,0.00,7,WeatherTracker,2013-03-14 12:52:00,
2013-03-14 07:57:00,34.9,31.4,30.09,South,188,2.0,0.0,87,0.00,,,0.00,12,WeatherTracker,2013-03-14 12:57:00,
2013-03-14 08:02:00,35.3,31.5,30.09,South,187,0.0,0.0,86,0.00,,,0.00,16,WeatherTracker,2013-03-14 13:02:00,
2013-03-14 08:07:00,35.4,31.3,30.10,South,188,1.0,0.0,85,0.00,,,0.00,23,WeatherTracker,2013-03-14 13:07:00,
2013-03-14 08:12:00,35.7,31.6,30.10,South,190,0.0,0.0,85,0.00,,,0.00,32,WeatherTracker,2013-03-14 13:12:00,
2013-03-14 08:17:00,35.9,31.5,30.10,South,190,3.0,0.0,84,0.00,,,0.00,37,WeatherTracker,2013-03-14 13:17:00,
2013-03-14 08:22:00,36.1,31.4,30.10,South,190,2.0,0.0,83,0.00,,,0.00,42,WeatherTracker,2013-03-14 13:22:00,
2013-03-14 08:28:00,36.2,31.2,30.11,South,190,2.0,0.0,82,0.00,,,0.00,42,WeatherTracker,2013-03-14 13:28:00,
2013-03-14 08:33:00,36.3,31.3,30.11,WSW,249,3.0,0.0,82,0.00,,,0.00,53,WeatherTracker,2013-03-14 13:33:00,
2013-03-14 08:38:00,36.6,31.3,30.11,West,276,3.0,0.0,81,0.00,,,0.00,63,WeatherTracker,2013-03-14 13:38:00,
2013-03-14 08:43:00,36.8,31.5,30.11,West,280,3.0,0.0,81,0.00,,,0.00,70,WeatherTracker,2013-03-14 13:43:00,
2013-03-14 08:48:00,37.0,31.4,30.12,WNW,289,3.0,0.0,80,0.00,,,0.00,81,WeatherTracker,2013-03-14 13:48:00,
2013-03-14 08:53:00,37.3,31.7,30.11,WNW,291,2.0,0.0,80,0.00,,,0.00,102,WeatherTracker,2013-03-14 13:53:00,
2013-03-14 08:58:00,37.6,31.7,30.12,WNW,300,5.0,0.0,79,0.00,,,0.00,137,WeatherTracker,2013-03-14 13:58:00,
2013-03-14 09:03:00,38.1,32.2,30.12,NW,315,6.0,0.0,79,0.00,,,0.00,132,WeatherTracker,2013-03-14 14:03:00,
2013-03-14 09:08:00,38.8,32.5,30.12,NW,319,5.0,0.0,78,0.00,,,0.00,120,WeatherTracker,2013-03-14 14:08:00,
2013-03-14 09:13:00,39.5,32.6,30.12,NW,322,5.0,0.0,76,0.00,,,0.00,141,WeatherTracker,2013-03-14 14:13:00,
2013-03-14 09:18:00,40.2,32.9,30.13,WNW,302,5.0,0.0,75,0.00,,,0.00,135,WeatherTracker,2013-03-14 14:18:00,
2013-03-14 09:23:00,40.8,33.2,30.13,NW,315,5.0,0.0,74,0.00,,,0.00,158,WeatherTracker,2013-03-14 14:23:00,
2013-03-14 09:28:00,41.5,33.2,30.13,NW,311,4.0,0.0,72,0.00,,,0.00,183,WeatherTracker,2013-03-14 14:28:00,
2013-03-14 09:33:00,42.2,33.5,30.13,NW,319,4.0,0.0,71,0.00,,,0.00,214,WeatherTracker,2013-03-14 14:33:00,
2013-03-14 09:38:00,42.9,33.8,30.13,NW,319,3.0,0.0,70,0.00,,,0.00,195,WeatherTracker,2013-03-14 14:38:00,
2013-03-14 09:43:00,43.6,33.7,30.13,NNW,331,0.0,0.0,68,0.00,,,0.00,181,WeatherTracker,2013-03-14 14:43:00,
2013-03-14 09:48:00,44.2,33.9,30.13,NNW,332,1.0,0.0,67,0.00,,,0.00,244,WeatherTracker,2013-03-14 14:48:00,
2013-03-14 09:53:00,44.8,34.1,30.13,NNW,346,7.0,0.0,66,0.00,,,0.00,213,WeatherTracker,2013-03-14 14:53:00,
2013-03-14 09:58:00,45.5,34.4,30.13,NNW,336,2.0,0.0,65,0.00,,,0.00,279,WeatherTracker,2013-03-14 14:58:00,
2013-03-14 10:04:00,46.5,35.0,30.13,North,349,4.0,0.0,64,0.00,,,0.00,338,WeatherTracker,2013-03-14 15:04:00,
2013-03-14 10:09:00,47.3,34.9,30.13,NW,319,3.0,0.0,62,0.00,,,0.00,258,WeatherTracker,2013-03-14 15:09:00,
2013-03-14 10:14:00,48.1,34.9,30.14,NW,322,11.0,0.0,60,0.00,,,0.00,330,WeatherTracker,2013-03-14 15:14:00,
2013-03-14 10:19:00,49.0,35.3,30.14,NW,323,5.0,0.0,59,0.00,,,0.00,260,WeatherTracker,2013-03-14 15:19:00,
2013-03-14 10:24:00,49.6,35.4,30.14,North,360,6.0,0.0,58,0.00,,,0.00,271,WeatherTracker,2013-03-14 15:24:00,
2013-03-14 10:29:00,50.3,35.7,30.15,North,355,4.0,0.0,57,0.00,,,0.00,223,WeatherTracker,2013-03-14 15:29:00,
2013-03-14 10:34:00,50.5,35.4,30.15,North,360,2.0,0.0,56,0.00,,,0.00,176,WeatherTracker,2013-03-14 15:34:00,